createdAt,value
2023-03-17T12:48:01.200Z,25.26
2023-03-17T12:49:01.204Z,25.80
2023-03-17T12:50:01.161Z,25.52
2023-03-17T12:51:01.161Z,28.74
2023-03-17T12:52:01.183Z,27.62
2023-03-17T12:53:01.189Z,29.45
2023-03-17T12:54:01.148Z,32.03
2023-03-17T12:55:01.144Z,34.20
2023-03-17T12:56:01.137Z,36.73
2023-03-17T12:57:01.131Z,38.39
2023-03-17T13:40:01.339Z,24.88
2023-03-17T13:43:01.373Z,24.62
2023-03-17T16:16:04.848Z,19.45
2023-03-17T17:29:08.469Z,18.98
2023-03-17T17:30:08.502Z,18.95
2023-03-17T17:31:08.612Z,18.98
2023-03-17T17:32:08.603Z,18.76
2023-03-17T17:33:08.716Z,18.94
2023-03-17T17:34:08.718Z,18.92
2023-03-17T17:35:08.773Z,18.96
2023-03-17T17:36:08.904Z,18.97
2023-03-17T17:37:08.864Z,18.96
2023-03-17T17:38:08.884Z,18.97
2023-03-17T17:39:08.970Z,18.89
2023-03-17T17:40:08.997Z,18.90
2023-03-17T17:41:09.122Z,18.93
2023-03-17T17:42:09.125Z,18.90
2023-03-17T17:43:09.203Z,18.91
2023-03-17T17:44:09.229Z,18.94
2023-03-17T17:45:09.293Z,18.93
2023-03-17T17:46:09.316Z,18.90
2023-03-17T17:47:09.430Z,18.76
2023-03-17T17:48:09.451Z,18.77
2023-03-17T17:49:09.497Z,18.84
2023-03-17T17:50:09.560Z,18.89
2023-03-17T17:51:09.615Z,18.84
2023-03-17T17:52:09.670Z,18.93
2023-03-17T17:53:09.746Z,18.86
2023-03-17T17:54:09.811Z,18.76
2023-03-17T17:55:09.857Z,18.82
2023-03-17T17:56:09.894Z,18.89
2023-03-17T17:57:09.958Z,18.81
2023-03-17T17:58:10.042Z,18.76
2023-03-17T17:59:10.095Z,18.67
2023-03-17T18:00:10.179Z,18.59
2023-03-17T18:01:10.223Z,18.62
2023-03-17T18:02:10.264Z,18.64
2023-03-17T18:03:10.344Z,18.60
2023-03-17T18:04:10.458Z,18.66
2023-03-17T18:05:10.473Z,18.64
2023-03-17T18:06:10.521Z,18.64
2023-03-17T18:07:10.609Z,18.74
2023-03-17T18:09:10.701Z,18.70
2023-03-17T18:10:10.780Z,18.72
2023-03-17T18:11:10.827Z,18.72
2023-03-17T18:12:10.900Z,18.64
2023-03-17T18:13:10.981Z,18.73
2023-03-17T18:14:10.987Z,18.76
2023-03-17T18:15:12.048Z,18.69
2023-03-17T18:16:11.167Z,18.81
2023-03-17T18:17:11.211Z,18.69
2023-03-17T18:18:11.279Z,18.68
2023-03-17T18:19:11.332Z,18.66
2023-03-17T18:20:11.393Z,18.65
2023-03-17T18:21:11.450Z,18.68
2023-03-17T18:22:11.525Z,18.53
2023-03-17T18:23:11.591Z,18.57
2023-03-17T18:24:11.634Z,18.56
2023-03-17T18:25:11.693Z,18.61
2023-03-17T18:26:11.734Z,18.67
2023-03-17T18:27:11.810Z,18.44
2023-03-17T18:28:11.869Z,18.41
2023-03-17T18:29:11.900Z,18.43
2023-03-17T18:30:11.964Z,18.48
2023-03-17T18:31:11.998Z,18.39
2023-03-17T18:32:12.135Z,18.53
2023-03-17T18:33:12.173Z,18.60
2023-03-17T18:34:12.193Z,18.44
2023-03-17T18:35:12.258Z,18.53
2023-03-17T18:36:12.308Z,18.59
2023-03-17T18:37:12.400Z,18.64
2023-03-17T18:38:12.418Z,18.64
2023-03-17T18:39:12.488Z,18.68
2023-03-17T18:40:17.013Z,18.69
2023-03-17T18:42:12.492Z,18.75
2023-03-17T18:43:12.523Z,18.76
2023-03-17T18:44:12.495Z,18.69
2023-03-17T18:45:12.532Z,18.72
2023-03-17T18:46:12.524Z,18.62
2023-03-17T18:47:12.485Z,18.62
2023-03-17T18:48:12.488Z,18.69
2023-03-17T18:49:12.532Z,18.68
2023-03-17T18:50:12.594Z,18.76
2023-03-17T18:51:12.623Z,18.66
2023-03-17T18:52:12.729Z,18.45
2023-03-17T18:53:12.739Z,18.60
2023-03-17T18:54:12.830Z,18.67
2023-03-17T18:55:12.880Z,18.64
2023-03-17T18:56:12.945Z,18.69
2023-03-17T18:57:12.998Z,18.65
2023-03-17T18:58:13.078Z,18.66
2023-03-17T18:59:13.132Z,18.65
2023-03-17T19:00:13.174Z,18.67
2023-03-17T19:02:13.323Z,18.69
2023-03-17T19:03:13.406Z,18.66
2023-03-17T19:04:13.459Z,18.71
2023-03-17T19:05:13.527Z,18.76
2023-03-17T19:06:13.565Z,18.75
2023-03-17T19:07:13.660Z,18.76
2023-03-17T19:08:13.721Z,18.77
2023-03-17T19:09:13.771Z,18.74
2023-03-17T19:10:13.807Z,18.75
2023-03-17T19:11:13.892Z,18.76
2023-03-17T19:12:13.951Z,18.69
2023-03-17T19:13:14.027Z,18.58
2023-03-17T19:14:14.080Z,18.52
2023-03-17T19:15:14.133Z,18.57
2023-03-17T19:16:14.215Z,18.62
2023-03-17T19:17:14.277Z,18.66
2023-03-17T19:18:14.281Z,18.55
2023-03-17T19:19:14.354Z,18.56
2023-03-17T19:20:14.438Z,18.55
2023-03-17T19:21:14.493Z,18.55
2023-03-17T19:22:14.474Z,18.43
2023-03-17T19:23:14.517Z,18.55
2023-03-17T19:24:14.538Z,18.58
2023-03-17T19:25:14.622Z,18.54
2023-03-17T19:26:14.666Z,18.54
2023-03-17T19:27:14.679Z,18.55
2023-03-17T19:28:14.727Z,18.55
2023-03-17T19:29:14.725Z,18.51
2023-03-17T19:30:14.753Z,18.60
2023-03-17T19:31:14.801Z,18.69
2023-03-17T19:32:14.807Z,18.69
2023-03-17T19:33:14.816Z,18.70
2023-03-17T19:34:14.886Z,18.60
2023-03-17T19:35:14.881Z,18.58
2023-03-17T19:36:14.903Z,18.57
2023-03-17T19:37:14.951Z,18.52
2023-03-17T19:38:14.992Z,18.52
2023-03-17T19:39:15.056Z,18.60
2023-03-17T19:40:15.119Z,18.60
2023-03-17T19:41:15.137Z,18.64
2023-03-17T19:42:15.184Z,18.63
2023-03-17T19:43:25.662Z,18.65
2023-03-17T19:45:15.185Z,18.52
2023-03-17T19:46:15.257Z,18.59
2023-03-17T19:47:15.168Z,18.54
2023-03-17T19:48:15.190Z,18.53
2023-03-17T19:49:15.171Z,18.54
2023-03-17T19:50:15.151Z,18.53
2023-03-17T19:51:15.149Z,18.58
2023-03-17T19:52:15.140Z,18.62
2023-03-17T19:53:15.123Z,18.61
2023-03-17T19:54:15.131Z,18.64
2023-03-17T19:55:15.119Z,18.67
2023-03-17T19:56:15.121Z,18.62
2023-03-17T19:57:15.106Z,18.63
2023-03-17T19:58:15.148Z,18.66
2023-03-17T19:59:15.181Z,18.60
2023-03-17T20:00:15.248Z,18.60
2023-03-17T20:01:15.309Z,18.59
2023-03-17T20:02:15.302Z,18.58
2023-03-17T20:03:15.337Z,18.59
2023-03-17T20:04:15.417Z,18.58
2023-03-17T20:05:15.380Z,18.62
2023-03-17T20:06:15.411Z,18.64
2023-03-17T20:07:15.452Z,18.69
2023-03-17T20:08:15.474Z,18.66
2023-03-17T20:09:15.517Z,18.69
2023-03-17T20:10:15.502Z,18.72
2023-03-17T20:11:15.560Z,18.71
2023-03-17T20:12:15.532Z,18.66
2023-03-17T20:13:15.600Z,18.68
2023-03-17T20:14:15.602Z,18.71
2023-03-17T20:15:15.667Z,18.72
2023-03-17T20:16:15.695Z,18.73
2023-03-17T20:17:15.695Z,18.76
2023-03-17T20:18:15.736Z,18.77
2023-03-17T20:19:15.727Z,18.79
2023-03-17T20:20:15.745Z,18.79
2023-03-17T20:21:15.764Z,18.78
2023-03-17T20:22:15.820Z,18.80
2023-03-17T20:23:15.811Z,18.81
2023-03-17T20:24:15.849Z,18.82
2023-03-17T20:25:15.845Z,18.80
2023-03-17T20:27:15.891Z,18.83
2023-03-17T20:28:15.894Z,18.84
2023-03-17T20:29:15.868Z,18.88
2023-03-17T20:30:15.872Z,18.87
2023-03-17T20:31:15.953Z,18.89
2023-03-17T20:32:15.869Z,18.90
2023-03-17T20:33:15.884Z,18.90
2023-03-17T20:34:15.910Z,18.94
2023-03-17T20:35:15.929Z,18.95
2023-03-17T20:36:15.904Z,18.97
2023-03-17T20:37:15.908Z,18.99
2023-03-17T20:38:15.911Z,18.99
2023-03-17T20:39:15.915Z,19.00
2023-03-17T20:40:15.924Z,19.04
2023-03-17T20:41:15.882Z,19.05
2023-03-17T20:42:15.877Z,19.07
2023-03-17T20:43:15.897Z,19.09
2023-03-17T20:44:15.991Z,19.13
2023-03-17T20:45:15.880Z,19.14
2023-03-17T20:46:15.952Z,19.15
2023-03-17T20:47:15.869Z,19.17
2023-03-17T20:48:15.848Z,19.19
2023-03-17T20:49:15.869Z,19.21
2023-03-17T20:50:15.885Z,19.22
2023-03-17T23:20:18.526Z,20.85
2023-03-17T23:21:18.510Z,20.85
2023-03-17T23:22:18.578Z,20.86
2023-03-17T23:23:18.612Z,20.89
2023-03-17T23:24:18.641Z,20.90
2023-03-17T23:25:18.687Z,20.90
2023-03-17T23:26:18.698Z,20.91
2023-03-17T23:27:18.743Z,20.90
2023-03-17T23:28:18.808Z,20.92
2023-03-17T23:29:18.842Z,20.93
2023-03-17T23:30:18.892Z,20.94
2023-03-17T23:31:18.951Z,20.93
2023-03-17T23:32:18.916Z,20.93
2023-03-17T23:33:18.967Z,20.95
2023-03-17T23:34:19.001Z,20.98
2023-03-17T23:35:19.058Z,20.98
2023-03-17T23:36:19.136Z,20.99
2023-03-17T23:37:19.125Z,20.98
2023-03-17T23:38:19.146Z,20.99
2023-03-17T23:39:19.156Z,20.99
2023-03-17T23:40:19.233Z,20.99
2023-03-17T23:41:19.245Z,21.00
2023-03-17T23:42:19.321Z,21.01
2023-03-17T23:43:19.318Z,21.02
2023-03-17T23:44:19.373Z,21.03
2023-03-17T23:45:19.392Z,21.05
2023-03-17T23:46:19.462Z,21.05
2023-03-17T23:47:19.497Z,21.05
2023-03-17T23:48:19.525Z,21.07
2023-03-17T23:49:19.576Z,21.05
2023-03-17T23:50:19.641Z,21.06
2023-03-17T23:51:19.645Z,21.05
2023-03-17T23:52:19.685Z,21.08
2023-03-17T23:53:19.708Z,21.07
2023-03-17T23:54:19.758Z,21.09
2023-03-17T23:55:19.806Z,21.09
2023-03-17T23:56:19.827Z,21.08
2023-03-17T23:57:19.908Z,21.10
2023-03-17T23:58:19.951Z,21.11
2023-03-17T23:59:19.988Z,21.10
